Time;durP1;ratioP1;P1;durP2;ratioP2;P2;SDS_P1;SDS_P2;PMS_P1;PMS_P2;Temp;Humidity;BMP_temperature;BMP_pressure;BME280_temperature;BME280_humidity;BME280_pressure;Samples;Min_cycle;Max_cycle;Signal;HPM_P1;HPM_P2
2021/04/15 00:00:58;;;;;;;5.33;2.73;;;;;;;;;;5120465;28;20267;-74
2021/04/15 00:03:27;;;;;;;6.90;2.57;;;;;;;;;;5120239;28;20597;-74
2021/04/15 00:05:57;;;;;;;4.00;2.60;;;;;;;;;;5119747;28;20236;-75
2021/04/15 00:08:24;;;;;;;3.23;2.27;;;;;;;;;;5120051;28;20300;-74
2021/04/15 00:10:52;;;;;;;4.37;2.40;;;;;;;;;;5120358;28;20232;-75
2021/04/15 00:13:21;;;;;;;3.70;2.67;;;;;;;;;;5120084;28;20236;-74
2021/04/15 00:15:48;;;;;;;3.50;2.53;;;;;;;;;;5120177;28;20312;-74
2021/04/15 00:18:15;;;;;;;4.23;2.30;;;;;;;;;;5120041;28;20233;-74
2021/04/15 00:20:44;;;;;;;2.87;2.20;;;;;;;;;;5119708;28;20307;-75
2021/04/15 00:23:11;;;;;;;4.73;2.40;;;;;;;;;;5119669;28;20236;-75
2021/04/15 00:25:38;;;;;;;7.03;3.10;;;;;;;;;;5119561;28;20232;-75
2021/04/15 00:28:06;;;;;;;2.60;2.40;;;;;;;;;;5119568;28;20278;-75
2021/04/15 00:30:33;;;;;;;4.87;2.50;;;;;;;;;;5119956;28;20307;-75
2021/04/15 00:33:01;;;;;;;5.10;3.30;;;;;;;;;;5119630;28;20224;-75
2021/04/15 00:35:28;;;;;;;4.63;2.33;;;;;;;;;;5119490;27;20767;-75
2021/04/15 00:37:56;;;;;;;4.10;2.50;;;;;;;;;;5119460;28;20232;-75
2021/04/15 00:40:23;;;;;;;3.43;2.10;;;;;;;;;;5119582;28;20263;-74
2021/04/15 00:42:50;;;;;;;4.27;2.07;;;;;;;;;;5119317;28;20731;-75
2021/04/15 00:45:20;;;;;;;4.07;2.20;;;;;;;;;;5119205;28;20253;-74
2021/04/15 00:47:49;;;;;;;5.13;2.40;;;;;;;;;;5110575;28;20232;-75
2021/04/15 00:50:19;;;;;;;4.20;2.60;;;;;;;;;;5119283;28;20937;-74
2021/04/15 00:52:48;;;;;;;4.47;2.13;;;;;;;;;;5119088;28;20245;-74
2021/04/15 00:55:18;;;;;;;3.60;2.60;;;;;;;;;;5119165;28;20288;-74
2021/04/15 00:57:48;;;;;;;7.87;4.47;;;;;;;;;;5118937;28;20720;-74
2021/04/15 01:00:16;;;;;;;2.57;2.23;;;;;;;;;;5119028;28;20263;-74
2021/04/15 01:02:43;;;;;;;4.17;2.50;;;;;;;;;;5119055;28;20680;-75
2021/04/15 01:05:13;;;;;;;2.87;2.27;;;;;;;;;;5119062;28;20463;-74
2021/04/15 01:07:41;;;;;;;4.63;2.50;;;;;;;;;;5118970;28;20303;-74
2021/04/15 01:10:08;;;;;;;3.60;2.53;;;;;;;;;;5119034;28;20236;-74
2021/04/15 01:12:45;;;;;;;2.53;2.33;;;;;;;;;;5119071;28;20288;-75
2021/04/15 01:15:19;;;;;;;2.53;2.30;;;;;;;;;;5118945;28;20538;-75
2021/04/15 01:17:49;;;;;;;5.00;2.40;;;;;;;;;;5118728;28;20235;-75
2021/04/15 01:20:33;;;;;;;9.30;2.60;;;;;;;;;;5118696;28;20280;-74
2021/04/15 01:23:08;;;;;;;3.40;2.40;;;;;;;;;;5118782;28;20293;-74
2021/04/15 01:25:52;;;;;;;6.17;2.57;;;;;;;;;;5118623;28;20274;-74
2021/04/15 01:28:32;;;;;;;3.50;2.40;;;;;;;;;;5118471;28;20731;-74
2021/04/15 01:31:01;;;;;;;2.97;2.57;;;;;;;;;;5118792;28;20283;-74
2021/04/15 01:33:33;;;;;;;4.10;2.60;;;;;;;;;;5118569;28;20846;-75
2021/04/15 01:36:03;;;;;;;5.67;2.87;;;;;;;;;;5118198;27;20470;-75
2021/04/15 01:38:32;;;;;;;3.20;2.40;;;;;;;;;;5118783;28;20438;-75
2021/04/15 01:41:02;;;;;;;3.13;2.50;;;;;;;;;;5118150;28;20561;-74
2021/04/15 01:43:32;;;;;;;2.77;2.47;;;;;;;;;;5118356;28;20240;-74
2021/04/15 01:46:00;;;;;;;4.73;2.80;;;;;;;;;;5118477;28;20232;-75
2021/04/15 01:48:30;;;;;;;4.97;2.40;;;;;;;;;;5109666;27;20240;-75
2021/04/15 01:50:59;;;;;;;4.40;2.73;;;;;;;;;;5118253;28;20208;-75
2021/04/15 01:53:29;;;;;;;6.80;2.60;;;;;;;;;;5118342;28;20232;-75
2021/04/15 01:55:59;;;;;;;2.63;2.43;;;;;;;;;;5118402;28;20224;-74
2021/04/15 01:58:29;;;;;;;5.57;2.53;;;;;;;;;;5118188;28;20223;-75
2021/04/15 02:01:00;;;;;;;4.63;2.77;;;;;;;;;;5118654;28;20254;-75
2021/04/15 02:03:28;;;;;;;2.53;2.10;;;;;;;;;;5118170;28;20236;-74
2021/04/15 02:05:58;;;;;;;3.03;2.67;;;;;;;;;;5118197;28;20221;-74
2021/04/15 02:08:26;;;;;;;2.97;2.63;;;;;;;;;;5120026;28;20212;-74
2021/04/15 02:10:56;;;;;;;2.70;2.50;;;;;;;;;;5122777;27;20223;-75
2021/04/15 02:13:25;;;;;;;3.67;2.60;;;;;;;;;;5122411;28;20304;-74
2021/04/15 02:15:56;;;;;;;4.57;2.63;;;;;;;;;;5122494;28;20224;-75
2021/04/15 02:18:26;;;;;;;3.97;2.70;;;;;;;;;;5122355;28;20296;-74
2021/04/15 02:20:55;;;;;;;4.17;2.93;;;;;;;;;;5122035;28;20307;-75
2021/04/15 02:23:25;;;;;;;2.57;2.37;;;;;;;;;;5122134;28;20734;-74
2021/04/15 02:25:56;;;;;;;3.53;2.87;;;;;;;;;;5121923;28;20260;-74
2021/04/15 02:28:26;;;;;;;3.90;2.90;;;;;;;;;;5122154;28;20243;-74
2021/04/15 02:30:55;;;;;;;5.53;3.40;;;;;;;;;;5121855;28;20691;-75
2021/04/15 02:33:24;;;;;;;4.17;2.73;;;;;;;;;;5122246;28;20299;-74
2021/04/15 02:35:53;;;;;;;3.90;2.90;;;;;;;;;;5121441;28;21084;-75
2021/04/15 02:38:24;;;;;;;2.90;2.60;;;;;;;;;;5122163;28;20537;-74
2021/04/15 02:40:52;;;;;;;4.77;3.00;;;;;;;;;;5122062;28;20513;-74
2021/04/15 02:43:23;;;;;;;5.63;3.30;;;;;;;;;;5121947;28;20510;-75
2021/04/15 02:45:51;;;;;;;2.77;2.57;;;;;;;;;;5121492;27;20531;-74
2021/04/15 02:48:20;;;;;;;3.43;3.17;;;;;;;;;;5112615;28;20630;-75
2021/04/15 02:50:47;;;;;;;4.63;3.30;;;;;;;;;;5121486;28;20510;-74
2021/04/15 02:53:17;;;;;;;5.23;3.70;;;;;;;;;;5121796;28;20287;-74
2021/04/15 02:55:48;;;;;;;5.53;3.57;;;;;;;;;;5121653;28;20545;-74
2021/04/15 02:58:17;;;;;;;3.13;2.63;;;;;;;;;;5121682;28;20445;-74
2021/04/15 03:00:45;;;;;;;7.80;3.50;;;;;;;;;;5121255;28;20949;-74
2021/04/15 03:03:14;;;;;;;5.73;3.43;;;;;;;;;;5121753;28;20530;-75
2021/04/15 03:05:41;;;;;;;3.57;2.90;;;;;;;;;;5120822;28;20909;-74
2021/04/15 03:08:10;;;;;;;6.43;3.70;;;;;;;;;;5121537;28;20470;-75
2021/04/15 03:10:40;;;;;;;4.30;3.40;;;;;;;;;;5121255;28;20439;-74
2021/04/15 03:13:10;;;;;;;3.83;3.13;;;;;;;;;;5121130;28;20439;-74
2021/04/15 03:15:40;;;;;;;6.17;4.10;;;;;;;;;;5121093;28;20872;-74
2021/04/15 03:18:11;;;;;;;5.10;3.50;;;;;;;;;;5121293;28;20533;-74
2021/04/15 03:20:42;;;;;;;5.67;3.87;;;;;;;;;;5120604;28;20585;-74
2021/04/15 03:23:13;;;;;;;5.97;3.83;;;;;;;;;;5121146;28;20566;-75
2021/04/15 03:25:41;;;;;;;4.03;3.63;;;;;;;;;;5120852;28;21067;-75
2021/04/15 03:28:11;;;;;;;5.83;3.60;;;;;;;;;;5120943;28;20492;-74
2021/04/15 03:30:44;;;;;;;5.73;4.27;;;;;;;;;;5121078;28;20439;-74
2021/04/15 03:33:13;;;;;;;8.03;4.10;;;;;;;;;;5121029;27;20545;-75
2021/04/15 03:35:41;;;;;;;4.30;3.77;;;;;;;;;;5120372;28;20538;-75
2021/04/15 03:38:11;;;;;;;6.30;4.40;;;;;;;;;;5107573;28;20534;-75
2021/04/15 03:40:40;;;;;;;4.83;3.97;;;;;;;;;;5120644;27;20508;-74
2021/04/15 03:43:12;;;;;;;5.23;3.90;;;;;;;;;;5120751;27;20474;-74
2021/04/15 03:45:43;;;;;;;7.20;4.23;;;;;;;;;;5120555;28;20516;-74
2021/04/15 03:48:11;;;;;;;7.00;4.00;;;;;;;;;;5111853;28;20529;-74
2021/04/15 03:50:42;;;;;;;6.10;4.20;;;;;;;;;;5120089;28;20529;-75
2021/04/15 03:53:10;;;;;;;4.97;4.47;;;;;;;;;;5120743;28;20514;-74
2021/04/15 03:55:39;;;;;;;4.10;3.70;;;;;;;;;;5120545;28;20549;-74
2021/04/15 03:58:08;;;;;;;4.53;4.10;;;;;;;;;;5120284;28;20443;-74
2021/04/15 04:00:38;;;;;;;4.57;4.00;;;;;;;;;;5120419;27;20478;-75
2021/04/15 04:03:09;;;;;;;8.37;4.43;;;;;;;;;;5120247;28;20860;-75
2021/04/15 04:05:38;;;;;;;5.60;4.20;;;;;;;;;;5119843;27;20478;-75
2021/04/15 04:08:09;;;;;;;4.40;3.93;;;;;;;;;;5120453;28;20481;-74
2021/04/15 04:10:38;;;;;;;4.70;4.30;;;;;;;;;;5120326;28;20526;-74
2021/04/15 04:13:16;;;;;;;4.00;3.63;;;;;;;;;;5120048;28;20471;-75
2021/04/15 04:15:47;;;;;;;6.33;4.57;;;;;;;;;;5119954;28;20465;-74
2021/04/15 04:18:15;;;;;;;6.70;4.53;;;;;;;;;;5120109;28;20447;-74
2021/04/15 04:20:42;;;;;;;5.33;4.37;;;;;;;;;;5119508;28;21044;-75
2021/04/15 04:23:11;;;;;;;4.33;3.90;;;;;;;;;;5120029;28;20526;-75
2021/04/15 04:25:42;;;;;;;4.83;4.33;;;;;;;;;;5119723;28;20557;-74
2021/04/15 04:28:13;;;;;;;4.87;3.93;;;;;;;;;;5119877;28;20446;-75
2021/04/15 04:30:42;;;;;;;4.63;4.07;;;;;;;;;;5119190;28;20443;-74
2021/04/15 04:33:12;;;;;;;6.60;4.60;;;;;;;;;;5119850;28;20517;-75
2021/04/15 04:35:42;;;;;;;7.43;4.97;;;;;;;;;;5119418;28;20498;-74
2021/04/15 04:38:13;;;;;;;8.80;4.77;;;;;;;;;;5119775;28;20474;-75
2021/04/15 04:40:42;;;;;;;5.13;4.63;;;;;;;;;;5119515;28;20557;-75
2021/04/15 04:43:11;;;;;;;5.27;4.77;;;;;;;;;;5119402;28;20522;-75
2021/04/15 04:45:38;;;;;;;5.17;4.23;;;;;;;;;;5119408;28;20495;-74
2021/04/15 04:48:07;;;;;;;5.37;4.33;;;;;;;;;;5110560;28;20499;-74
2021/04/15 04:50:38;;;;;;;6.57;4.40;;;;;;;;;;5119168;28;20466;-75
2021/04/15 04:53:06;;;;;;;5.73;4.90;;;;;;;;;;5119343;28;20449;-74
2021/04/15 04:55:36;;;;;;;5.73;4.63;;;;;;;;;;5119319;28;20550;-74
2021/04/15 04:58:08;;;;;;;5.73;4.40;;;;;;;;;;5119413;28;20534;-74
2021/04/15 05:00:37;;;;;;;4.47;4.00;;;;;;;;;;5119153;28;20497;-75
2021/04/15 05:03:04;;;;;;;6.93;4.53;;;;;;;;;;5119330;28;20439;-74
2021/04/15 05:05:32;;;;;;;5.97;3.43;;;;;;;;;;5118883;28;20470;-74
2021/04/15 05:08:02;;;;;;;5.50;4.20;;;;;;;;;;5119187;28;20471;-75
2021/04/15 05:10:30;;;;;;;5.57;4.53;;;;;;;;;;5118999;28;20985;-75
2021/04/15 05:13:09;;;;;;;6.00;4.47;;;;;;;;;;5118724;28;20446;-75
2021/04/15 05:15:37;;;;;;;6.73;4.80;;;;;;;;;;5119003;28;20490;-75
2021/04/15 05:18:05;;;;;;;5.37;4.37;;;;;;;;;;5118880;28;20445;-75
2021/04/15 05:20:32;;;;;;;6.47;4.53;;;;;;;;;;5118407;28;21001;-75
2021/04/15 05:23:02;;;;;;;4.97;4.40;;;;;;;;;;5118946;28;20561;-75
2021/04/15 05:25:34;;;;;;;7.83;4.10;;;;;;;;;;5118432;28;20475;-74
2021/04/15 05:28:01;;;;;;;7.40;4.60;;;;;;;;;;5118503;28;20992;-75
2021/04/15 05:30:33;;;;;;;7.10;5.00;;;;;;;;;;5118747;28;20533;-74
2021/04/15 05:33:01;;;;;;;6.10;4.77;;;;;;;;;;5118502;28;20474;-75
2021/04/15 05:35:31;;;;;;;6.73;4.53;;;;;;;;;;5118131;28;20490;-75
2021/04/15 05:37:58;;;;;;;9.93;5.20;;;;;;;;;;5118849;28;20474;-76
2021/04/15 05:40:25;;;;;;;6.20;4.83;;;;;;;;;;5118896;28;20445;-74
2021/04/15 05:43:00;;;;;;;5.97;5.10;;;;;;;;;;5117429;28;20878;-74
2021/04/15 05:45:28;;;;;;;6.90;5.07;;;;;;;;;;5118376;28;20577;-75
2021/04/15 05:47:57;;;;;;;6.43;4.93;;;;;;;;;;5113905;28;20534;-75
2021/04/15 05:50:26;;;;;;;7.30;5.00;;;;;;;;;;5118087;28;20867;-74
2021/04/15 05:52:55;;;;;;;6.83;4.37;;;;;;;;;;5118194;28;20522;-74
2021/04/15 05:55:33;;;;;;;6.77;5.53;;;;;;;;;;5118244;28;20486;-74
2021/04/15 05:58:04;;;;;;;8.03;5.40;;;;;;;;;;5118471;28;20525;-74
2021/04/15 06:00:34;;;;;;;7.33;5.07;;;;;;;;;;5118364;28;20473;-75
2021/04/15 06:03:09;;;;;;;7.50;5.03;;;;;;;;;;5118201;28;20466;-75
2021/04/15 06:05:37;;;;;;;8.70;5.20;;;;;;;;;;5117877;28;20470;-75
2021/04/15 06:08:05;;;;;;;5.40;4.80;;;;;;;;;;5118388;28;20950;-75
2021/04/15 06:10:34;;;;;;;11.97;7.30;;;;;;;;;;5118443;28;20477;-75
2021/04/15 06:13:05;;;;;;;5.33;4.60;;;;;;;;;;5118199;28;20587;-75
2021/04/15 06:15:34;;;;;;;5.43;4.93;;;;;;;;;;5118127;28;20652;-76
2021/04/15 06:18:04;;;;;;;10.30;5.70;;;;;;;;;;5117957;28;20252;-77
2021/04/15 06:20:33;;;;;;;7.97;5.33;;;;;;;;;;5117871;28;20205;-77
2021/04/15 06:23:04;;;;;;;5.03;4.57;;;;;;;;;;5114505;28;20292;-76
2021/04/15 06:25:32;;;;;;;8.37;4.93;;;;;;;;;;5108909;28;20319;-78
2021/04/15 06:28:04;;;;;;;15.03;6.17;;;;;;;;;;5117670;27;20207;-76
2021/04/15 06:30:55;;;;;;;6.60;5.50;;;;;;;;;;5117800;28;20598;-77
2021/04/15 06:33:22;;;;;;;12.47;5.77;;;;;;;;;;5118107;28;20284;-77
2021/04/15 06:35:53;;;;;;;6.10;5.07;;;;;;;;;;5117452;28;20252;-77
2021/04/15 06:38:24;;;;;;;6.30;5.10;;;;;;;;;;5118001;27;20209;-77
2021/04/15 06:40:59;;;;;;;11.13;5.70;;;;;;;;;;5117504;28;20242;-77
2021/04/15 06:44:00;;;;;;;7.57;5.40;;;;;;;;;;5118004;28;20193;-77
2021/04/15 06:46:36;;;;;;;5.43;4.93;;;;;;;;;;5114272;27;20252;-76
2021/04/15 06:49:11;;;;;;;8.07;5.93;;;;;;;;;;5113898;28;20200;-75
2021/04/15 06:51:43;;;;;;;6.33;5.03;;;;;;;;;;5108193;28;20204;-77
2021/04/15 06:54:19;;;;;;;5.67;4.70;;;;;;;;;;5117439;28;20243;-76
2021/04/15 06:56:56;;;;;;;11.47;5.47;;;;;;;;;;5121490;28;20639;-76
2021/04/15 06:59:39;;;;;;;7.60;5.27;;;;;;;;;;5142216;27;20238;-74
2021/04/15 07:02:09;;;;;;;7.83;5.10;;;;;;;;;;5141696;27;20647;-77
2021/04/15 07:04:41;;;;;;;11.17;5.53;;;;;;;;;;5115633;27;20260;-76
2021/04/15 07:07:11;;;;;;;7.07;5.00;;;;;;;;;;5119264;27;20260;-77
2021/04/15 07:09:59;;;;;;;6.40;5.77;;;;;;;;;;5121302;28;20288;-77
2021/04/15 07:12:43;;;;;;;7.23;5.23;;;;;;;;;;5120294;27;20200;-77
2021/04/15 07:15:22;;;;;;;6.50;5.00;;;;;;;;;;5121034;27;20213;-76
2021/04/15 07:18:02;;;;;;;7.70;5.50;;;;;;;;;;5118524;28;20521;-76
2021/04/15 07:20:40;;;;;;;6.67;5.10;;;;;;;;;;5117129;28;20203;-76
2021/04/15 07:23:19;;;;;;;7.37;5.23;;;;;;;;;;5119127;28;20973;-76
2021/04/15 07:25:58;;;;;;;10.77;5.77;;;;;;;;;;5120718;28;20671;-76
2021/04/15 07:28:43;;;;;;;6.33;5.07;;;;;;;;;;5118399;28;20208;-76
2021/04/15 07:31:19;;;;;;;7.57;5.43;;;;;;;;;;5119731;28;20201;-76
2021/04/15 07:34:11;;;;;;;6.77;5.40;;;;;;;;;;5120000;27;20212;-76
2021/04/15 07:37:00;;;;;;;9.97;5.37;;;;;;;;;;5106248;28;20225;-76
2021/04/15 07:39:34;;;;;;;7.57;5.50;;;;;;;;;;5117150;28;20238;-76
2021/04/15 07:42:15;;;;;;;6.07;5.47;;;;;;;;;;5120029;28;20284;-77
2021/04/15 07:44:44;;;;;;;6.87;5.37;;;;;;;;;;5106512;28;20264;-77
2021/04/15 07:47:21;;;;;;;6.00;5.27;;;;;;;;;;5107115;28;20236;-76
2021/04/15 07:50:02;;;;;;;6.70;5.30;;;;;;;;;;5109358;28;20209;-78
2021/04/15 07:52:44;;;;;;;6.67;5.03;;;;;;;;;;5117306;28;20200;-78
2021/04/15 07:55:30;;;;;;;6.63;5.00;;;;;;;;;;5079458;28;20289;-74
2021/04/15 07:58:03;;;;;;;9.10;5.30;;;;;;;;;;5109773;28;20271;-74
2021/04/15 08:00:51;;;;;;;5.20;4.53;;;;;;;;;;5106681;28;20215;-74
2021/04/15 08:03:32;;;;;;;7.57;5.73;;;;;;;;;;5099652;27;20210;-74
2021/04/15 08:06:09;;;;;;;9.30;5.40;;;;;;;;;;5105675;28;20217;-75
2021/04/15 08:08:48;;;;;;;4.87;4.43;;;;;;;;;;5105199;28;20268;-74
2021/04/15 08:11:35;;;;;;;5.70;5.10;;;;;;;;;;5102789;28;20295;-75
2021/04/15 08:14:29;;;;;;;7.07;4.97;;;;;;;;;;5104307;28;20721;-76
2021/04/15 08:16:57;;;;;;;6.63;4.90;;;;;;;;;;5105933;28;20296;-74
2021/04/15 08:19:57;;;;;;;7.53;5.53;;;;;;;;;;5101327;28;20201;-74
2021/04/15 08:22:33;;;;;;;8.50;4.63;;;;;;;;;;5041098;28;20225;-75
2021/04/15 08:25:07;;;;;;;8.63;5.13;;;;;;;;;;5043252;28;20325;-76
2021/04/15 08:27:56;;;;;;;6.80;4.83;;;;;;;;;;5078673;28;20204;-76
2021/04/15 08:30:27;;;;;;;7.23;5.10;;;;;;;;;;5106612;28;20250;-75
2021/04/15 08:33:00;;;;;;;7.73;5.23;;;;;;;;;;5105807;28;20197;-76
2021/04/15 08:35:32;;;;;;;7.73;5.13;;;;;;;;;;5112165;28;20228;-76
2021/04/15 08:38:12;;;;;;;5.20;4.70;;;;;;;;;;5105622;28;20293;-76
2021/04/15 08:40:47;;;;;;;7.03;5.23;;;;;;;;;;5112725;28;21042;-75
2021/04/15 08:43:37;;;;;;;7.00;5.73;;;;;;;;;;5118512;28;20707;-76
2021/04/15 08:46:08;;;;;;;7.67;5.33;;;;;;;;;;5115061;28;20308;-76
2021/04/15 08:48:38;;;;;;;7.63;5.20;;;;;;;;;;5102176;28;20236;-75
2021/04/15 08:51:35;;;;;;;8.90;5.00;;;;;;;;;;5114054;28;20225;-75
2021/04/15 08:54:20;;;;;;;6.63;4.77;;;;;;;;;;5117572;28;20200;-75
2021/04/15 08:56:52;;;;;;;6.97;5.17;;;;;;;;;;5109196;27;20232;-77
2021/04/15 08:59:23;;;;;;;7.27;4.93;;;;;;;;;;5117387;27;20268;-75
2021/04/15 09:01:58;;;;;;;6.47;5.30;;;;;;;;;;5118361;28;20224;-74
2021/04/15 09:04:31;;;;;;;5.70;5.13;;;;;;;;;;5117838;28;20223;-77
2021/04/15 09:07:02;;;;;;;5.90;5.30;;;;;;;;;;5106924;28;20201;-74
2021/04/15 09:09:34;;;;;;;5.87;4.80;;;;;;;;;;5117088;28;20231;-75
2021/04/15 09:12:16;;;;;;;9.67;5.60;;;;;;;;;;5118836;28;20207;-74
2021/04/15 09:14:50;;;;;;;5.40;4.90;;;;;;;;;;5104448;28;20252;-75
2021/04/15 09:17:19;;;;;;;6.47;4.80;;;;;;;;;;5116470;28;20707;-75
2021/04/15 09:19:53;;;;;;;7.20;4.97;;;;;;;;;;5115065;28;20204;-74
2021/04/15 09:22:33;;;;;;;5.00;4.50;;;;;;;;;;5106264;28;20304;-75
2021/04/15 09:25:06;;;;;;;4.70;4.27;;;;;;;;;;5103861;28;20289;-75
2021/04/15 09:27:44;;;;;;;8.47;5.43;;;;;;;;;;5104913;28;20232;-74
2021/04/15 09:30:29;;;;;;;7.00;5.33;;;;;;;;;;5118356;28;20655;-74
2021/04/15 09:32:58;;;;;;;7.40;4.87;;;;;;;;;;5110968;28;20284;-73
2021/04/15 09:35:41;;;;;;;5.80;5.27;;;;;;;;;;5112627;28;20221;-74
2021/04/15 09:38:31;;;;;;;4.87;4.47;;;;;;;;;;5105073;28;20194;-75
2021/04/15 09:41:07;;;;;;;5.67;4.90;;;;;;;;;;5132305;27;20200;-73
2021/04/15 09:43:55;;;;;;;7.13;5.37;;;;;;;;;;5113498;27;20604;-74
2021/04/15 09:46:26;;;;;;;6.20;4.93;;;;;;;;;;5105539;28;20281;-73
2021/04/15 09:49:16;;;;;;;6.10;5.53;;;;;;;;;;5098916;28;20205;-74
2021/04/15 09:52:10;;;;;;;6.53;5.23;;;;;;;;;;5108478;28;20196;-74
2021/04/15 09:54:45;;;;;;;6.77;4.93;;;;;;;;;;5080993;28;20670;-75
2021/04/15 09:57:20;;;;;;;8.73;5.60;;;;;;;;;;5115899;28;20335;-74
2021/04/15 09:59:58;;;;;;;7.73;5.50;;;;;;;;;;5102397;28;20288;-74
2021/04/15 10:02:29;;;;;;;5.83;4.97;;;;;;;;;;5118174;28;20346;-74
2021/04/15 10:05:00;;;;;;;7.03;4.90;;;;;;;;;;5103940;28;20575;-73
2021/04/15 10:07:29;;;;;;;5.33;4.70;;;;;;;;;;5101810;28;20291;-73
2021/04/15 10:10:02;;;;;;;6.03;5.30;;;;;;;;;;5101656;28;20229;-74
2021/04/15 10:12:44;;;;;;;5.47;4.87;;;;;;;;;;5114293;28;20194;-74
2021/04/15 10:15:17;;;;;;;5.60;5.10;;;;;;;;;;5108606;28;20311;-75
2021/04/15 10:18:14;;;;;;;5.57;5.17;;;;;;;;;;5116915;28;20232;-75
2021/04/15 10:20:54;;;;;;;6.63;5.30;;;;;;;;;;5052979;28;20202;-75
2021/04/15 10:23:36;;;;;;;7.10;4.53;;;;;;;;;;5106157;28;20299;-75
2021/04/15 10:26:07;;;;;;;9.27;5.00;;;;;;;;;;5106897;28;20244;-74
2021/04/15 10:28:54;;;;;;;5.70;4.97;;;;;;;;;;5099451;28;20231;-75
2021/04/15 10:31:40;;;;;;;6.13;4.90;;;;;;;;;;5117232;28;20556;-75
2021/04/15 10:34:18;;;;;;;6.43;4.73;;;;;;;;;;5121457;28;20200;-74
2021/04/15 10:36:52;;;;;;;6.37;4.20;;;;;;;;;;5121612;28;20287;-74
2021/04/15 10:39:32;;;;;;;6.13;4.73;;;;;;;;;;5112337;28;20224;-74
2021/04/15 10:42:25;;;;;;;5.53;5.00;;;;;;;;;;5108028;28;20312;-72
2021/04/15 10:45:13;;;;;;;6.13;4.10;;;;;;;;;;5109378;28;20232;-74
2021/04/15 10:47:47;;;;;;;5.67;4.67;;;;;;;;;;5107491;28;20712;-74
2021/04/15 10:50:21;;;;;;;7.03;4.60;;;;;;;;;;5106849;28;20201;-76
2021/04/15 10:52:53;;;;;;;4.57;4.20;;;;;;;;;;5106907;28;20748;-75
2021/04/15 10:55:23;;;;;;;7.10;5.07;;;;;;;;;;5109846;28;20229;-75
2021/04/15 10:57:50;;;;;;;6.03;4.57;;;;;;;;;;5109764;28;20284;-75
2021/04/15 11:00:21;;;;;;;5.47;4.07;;;;;;;;;;5110723;28;20641;-75
2021/04/15 11:02:49;;;;;;;5.13;4.13;;;;;;;;;;5117091;27;20255;-75
2021/04/15 11:05:28;;;;;;;4.57;4.10;;;;;;;;;;5109713;27;20221;-74
2021/04/15 11:07:56;;;;;;;7.33;4.43;;;;;;;;;;5108524;28;20265;-75
2021/04/15 11:10:27;;;;;;;4.33;3.93;;;;;;;;;;5108142;28;20614;-73
2021/04/15 11:13:21;;;;;;;4.33;3.93;;;;;;;;;;5107754;28;20280;-73
2021/04/15 11:15:49;;;;;;;4.33;3.67;;;;;;;;;;5075545;28;20297;-74
2021/04/15 11:18:21;;;;;;;4.13;3.73;;;;;;;;;;5115852;28;20702;-72
2021/04/15 11:20:50;;;;;;;9.27;4.70;;;;;;;;;;5115889;27;20254;-72
2021/04/15 11:23:29;;;;;;;5.80;4.27;;;;;;;;;;5121039;28;20233;-75
2021/04/15 11:26:10;;;;;;;5.73;4.27;;;;;;;;;;5106048;28;20600;-74
2021/04/15 11:28:37;;;;;;;7.13;4.40;;;;;;;;;;5121100;28;20208;-73
2021/04/15 11:31:17;;;;;;;4.60;3.90;;;;;;;;;;5103269;28;20194;-73
2021/04/15 11:33:50;;;;;;;4.50;4.10;;;;;;;;;;5114314;28;20200;-73
2021/04/15 11:36:20;;;;;;;4.03;3.73;;;;;;;;;;5120373;27;20254;-75
2021/04/15 11:38:48;;;;;;;4.27;3.50;;;;;;;;;;5118655;28;20296;-73
2021/04/15 11:41:17;;;;;;;3.83;3.40;;;;;;;;;;5121977;27;20744;-74
2021/04/15 11:43:44;;;;;;;6.73;3.73;;;;;;;;;;5114784;28;20644;-73
2021/04/15 11:46:17;;;;;;;6.37;3.83;;;;;;;;;;5117743;28;20250;-72
2021/04/15 11:48:44;;;;;;;3.53;3.23;;;;;;;;;;5110151;28;20229;-73
2021/04/15 11:51:16;;;;;;;3.57;3.27;;;;;;;;;;5114514;28;20220;-74
2021/04/15 11:53:49;;;;;;;4.40;3.37;;;;;;;;;;5117635;28;20232;-74
2021/04/15 11:56:18;;;;;;;5.97;3.43;;;;;;;;;;5115618;27;20265;-74
2021/04/15 11:58:45;;;;;;;4.03;3.43;;;;;;;;;;5118435;28;20674;-74
2021/04/15 12:01:22;;;;;;;3.43;2.77;;;;;;;;;;5118209;27;20193;-73
2021/04/15 12:03:56;;;;;;;5.93;3.87;;;;;;;;;;5118099;28;20200;-74
2021/04/15 12:06:25;;;;;;;6.13;2.87;;;;;;;;;;5116563;28;20299;-74
2021/04/15 12:08:54;;;;;;;4.40;2.80;;;;;;;;;;5121144;27;20201;-74
2021/04/15 12:11:24;;;;;;;4.10;3.40;;;;;;;;;;5115340;28;20201;-74
2021/04/15 12:13:54;;;;;;;3.40;3.10;;;;;;;;;;5118761;28;20226;-75
2021/04/15 12:16:22;;;;;;;3.73;3.10;;;;;;;;;;5119554;28;20232;-75
2021/04/15 12:18:51;;;;;;;4.53;2.90;;;;;;;;;;5118247;28;20205;-74
2021/04/15 12:21:21;;;;;;;3.67;3.00;;;;;;;;;;5117999;28;20721;-74
2021/04/15 12:23:49;;;;;;;5.90;3.30;;;;;;;;;;5119325;28;20222;-73
2021/04/15 12:26:43;;;;;;;5.13;2.73;;;;;;;;;;5117423;28;20304;-73
2021/04/15 12:29:13;;;;;;;4.67;2.70;;;;;;;;;;5119523;28;20667;-73
2021/04/15 12:31:43;;;;;;;5.50;2.90;;;;;;;;;;5117633;28;20201;-73
2021/04/15 12:34:17;;;;;;;4.63;3.20;;;;;;;;;;5119136;28;20664;-74
2021/04/15 12:36:46;;;;;;;3.43;3.13;;;;;;;;;;5109411;28;20198;-74
2021/04/15 12:39:16;;;;;;;4.57;3.30;;;;;;;;;;5110411;28;20208;-75
2021/04/15 12:41:45;;;;;;;3.60;3.30;;;;;;;;;;5110192;27;20221;-75
2021/04/15 12:44:16;;;;;;;3.57;2.93;;;;;;;;;;5116122;28;20344;-74
2021/04/15 12:46:44;;;;;;;3.07;2.67;;;;;;;;;;5114064;28;20257;-74
2021/04/15 12:49:16;;;;;;;3.67;3.10;;;;;;;;;;5115914;28;20652;-72
2021/04/15 12:51:44;;;;;;;4.80;3.50;;;;;;;;;;5105299;28;20604;-72
2021/04/15 12:54:13;;;;;;;6.33;2.80;;;;;;;;;;5116870;28;20196;-74
2021/04/15 12:56:41;;;;;;;4.50;3.13;;;;;;;;;;5116794;28;20205;-73
2021/04/15 12:59:13;;;;;;;3.63;3.23;;;;;;;;;;5105118;28;20202;-75
2021/04/15 13:01:40;;;;;;;3.30;2.97;;;;;;;;;;5116037;28;20201;-73
2021/04/15 13:04:17;;;;;;;2.97;2.40;;;;;;;;;;5117734;28;20205;-74
2021/04/15 13:07:11;;;;;;;3.70;2.80;;;;;;;;;;5103383;28;20229;-74
2021/04/15 13:09:39;;;;;;;5.17;2.70;;;;;;;;;;5098569;28;20626;-74
2021/04/15 13:12:23;;;;;;;5.70;3.00;;;;;;;;;;5104174;28;20313;-74
2021/04/15 13:14:52;;;;;;;3.07;2.63;;;;;;;;;;5105717;28;20284;-74
2021/04/15 13:17:38;;;;;;;2.93;2.73;;;;;;;;;;5118651;28;20258;-74
2021/04/15 13:20:07;;;;;;;10.97;3.53;;;;;;;;;;5104483;28;20691;-74
2021/04/15 13:22:35;;;;;;;3.23;2.93;;;;;;;;;;5116074;28;20625;-74
2021/04/15 13:25:07;;;;;;;2.93;2.73;;;;;;;;;;5117433;28;20235;-74
2021/04/15 13:27:45;;;;;;;2.97;2.67;;;;;;;;;;5117077;28;20704;-74
2021/04/15 13:30:28;;;;;;;3.37;3.07;;;;;;;;;;5118437;28;20240;-74
2021/04/15 13:33:06;;;;;;;3.67;3.00;;;;;;;;;;5099807;28;20235;-74
2021/04/15 13:35:44;;;;;;;3.53;3.20;;;;;;;;;;5113040;28;20280;-74
2021/04/15 13:38:42;;;;;;;3.43;3.10;;;;;;;;;;5117481;27;20223;-74
2021/04/15 13:41:20;;;;;;;3.07;2.80;;;;;;;;;;5127947;27;20200;-73
2021/04/15 13:44:19;;;;;;;4.67;3.17;;;;;;;;;;5102763;28;20205;-74
2021/04/15 13:52:54;;;;;;;2.57;2.37;;;;;;;;;;5048160;28;21397;-74
2021/04/15 13:55:28;;;;;;;4.97;3.00;;;;;;;;;;5047395;28;20228;-74
2021/04/15 13:57:56;;;;;;;4.50;2.67;;;;;;;;;;5045252;28;20195;-69
2021/04/15 14:00:35;;;;;;;3.77;2.97;;;;;;;;;;5045748;28;20750;-74
2021/04/15 14:03:03;;;;;;;5.13;3.37;;;;;;;;;;5043804;28;20282;-74
2021/04/15 14:05:32;;;;;;;3.47;2.93;;;;;;;;;;5054696;28;20756;-74
2021/04/15 14:08:21;;;;;;;4.17;3.27;;;;;;;;;;5057208;28;20211;-74
2021/04/15 14:10:48;;;;;;;3.93;3.00;;;;;;;;;;5054991;28;20272;-74
2021/04/15 14:13:16;;;;;;;3.20;2.50;;;;;;;;;;5053813;28;20263;-74
2021/04/15 14:15:46;;;;;;;3.80;3.03;;;;;;;;;;5053581;28;20231;-74
2021/04/15 14:18:22;;;;;;;3.27;3.00;;;;;;;;;;5054148;28;20278;-74
2021/04/15 14:20:50;;;;;;;3.77;3.20;;;;;;;;;;5042982;28;20222;-76
2021/04/15 14:23:18;;;;;;;3.90;3.17;;;;;;;;;;5053099;28;20839;-74
2021/04/15 14:25:45;;;;;;;5.37;2.63;;;;;;;;;;5054131;28;20817;-76
2021/04/15 14:28:15;;;;;;;6.07;3.53;;;;;;;;;;5045371;28;20203;-74
2021/04/15 14:30:42;;;;;;;6.67;3.20;;;;;;;;;;5117121;28;20272;-75
2021/04/15 14:33:16;;;;;;;3.80;2.80;;;;;;;;;;5110733;27;20261;-76
2021/04/15 14:35:44;;;;;;;5.03;3.40;;;;;;;;;;5112607;28;20312;-74
2021/04/15 14:38:14;;;;;;;3.70;3.00;;;;;;;;;;5103780;28;20197;-74
2021/04/15 14:40:41;;;;;;;5.20;3.40;;;;;;;;;;5106276;28;20280;-74
2021/04/15 14:43:13;;;;;;;2.97;2.67;;;;;;;;;;5104808;28;20255;-74
2021/04/15 14:45:40;;;;;;;4.43;3.30;;;;;;;;;;5105148;28;20233;-73
2021/04/15 14:48:15;;;;;;;4.60;2.97;;;;;;;;;;5111164;28;20280;-74
2021/04/15 14:50:43;;;;;;;3.83;2.90;;;;;;;;;;5103628;28;20201;-74
2021/04/15 14:53:13;;;;;;;3.20;2.90;;;;;;;;;;5096587;28;20229;-74
2021/04/15 14:55:40;;;;;;;3.87;2.70;;;;;;;;;;5105033;28;20262;-74
2021/04/15 14:58:09;;;;;;;5.03;3.53;;;;;;;;;;5106131;28;20289;-75
2021/04/15 15:00:45;;;;;;;4.40;2.93;;;;;;;;;;5102312;28;20624;-74
2021/04/15 15:03:16;;;;;;;3.23;3.03;;;;;;;;;;5107863;28;20248;-74
2021/04/15 15:05:43;;;;;;;4.40;3.03;;;;;;;;;;5106628;28;20626;-74
2021/04/15 15:08:12;;;;;;;3.70;3.07;;;;;;;;;;5105563;28;20228;-74
2021/04/15 15:10:40;;;;;;;5.23;3.23;;;;;;;;;;5102096;28;20248;-74
2021/04/15 15:13:08;;;;;;;4.67;3.10;;;;;;;;;;5101889;28;20679;-73
2021/04/15 15:15:37;;;;;;;3.70;3.17;;;;;;;;;;5108304;28;20681;-73
2021/04/15 15:18:06;;;;;;;3.63;2.80;;;;;;;;;;5107470;28;20207;-73
2021/04/15 15:20:36;;;;;;;3.50;3.07;;;;;;;;;;5105368;28;20198;-74
2021/04/15 15:23:08;;;;;;;3.63;2.87;;;;;;;;;;5109490;28;20225;-74